Time;durP1;ratioP1;P1;durP2;ratioP2;P2;SDS_P1;SDS_P2;PMS_P1;PMS_P2;Temp;Humidity;BMP_temperature;BMP_pressure;BME280_temperature;BME280_humidity;BME280_pressure;Samples;Min_cycle;Max_cycle;Signal;HPM_P1;HPM_P2
2021/09/09 00:01:52;;;;;;;10.50;6.85;;;;;;;13.80;80.26;98868.69;5052485;28;20102;-60
2021/09/09 00:04:18;;;;;;;9.65;6.70;;;;;;;13.81;80.35;98863.06;5053200;28;20045;-58
2021/09/09 00:06:45;;;;;;;8.07;6.35;;;;;;;13.79;80.01;98859.88;5035663;28;20491;-58
2021/09/09 00:09:12;;;;;;;10.50;6.85;;;;;;;13.76;80.26;98865.75;5053188;28;20045;-59
2021/09/09 00:11:38;;;;;;;9.40;6.80;;;;;;;13.71;80.60;98876.44;5052899;28;20141;-59
2021/09/09 00:14:04;;;;;;;8.75;6.55;;;;;;;13.72;80.77;98874.56;5051583;28;20136;-59
2021/09/09 00:16:31;;;;;;;11.30;7.50;;;;;;;13.73;80.67;98884.13;5052958;28;20045;-59
2021/09/09 00:18:59;;;;;;;9.25;6.65;;;;;;;13.77;80.73;98886.00;5052976;28;20063;-60
2021/09/09 00:21:25;;;;;;;10.18;6.57;;;;;;;13.75;80.50;98869.47;5053105;28;20072;-61
2021/09/09 00:23:52;;;;;;;10.40;7.00;;;;;;;13.71;80.54;98870.31;5052817;28;20033;-60
2021/09/09 00:26:18;;;;;;;11.10;7.15;;;;;;;13.70;80.89;98876.69;5052692;28;20037;-61
2021/09/09 00:28:43;;;;;;;12.48;6.65;;;;;;;13.66;81.02;98870.31;5052689;28;20506;-60
2021/09/09 00:31:09;;;;;;;9.60;6.38;;;;;;;13.65;80.85;98877.50;5052633;28;20087;-57
2021/09/09 00:33:36;;;;;;;13.27;7.38;;;;;;;13.63;80.91;98874.31;5051336;28;20041;-59
2021/09/09 00:36:02;;;;;;;10.95;7.47;;;;;;;13.63;80.71;98879.63;5051311;28;20045;-60
2021/09/09 00:38:28;;;;;;;14.25;7.88;;;;;;;13.63;81.36;98874.31;5052955;28;20041;-59
2021/09/09 00:40:55;;;;;;;9.48;6.75;;;;;;;13.61;80.83;98861.25;5051293;28;20454;-58
2021/09/09 00:43:21;;;;;;;12.30;6.93;;;;;;;13.60;80.98;98869.53;5018402;28;20041;-58
2021/09/09 00:45:51;;;;;;;13.38;7.53;;;;;;;13.58;81.40;98864.44;5051500;28;20044;-59
2021/09/09 00:48:17;;;;;;;11.65;7.25;;;;;;;13.57;81.01;98867.41;5051372;28;20049;-56
2021/09/09 00:50:43;;;;;;;12.35;7.43;;;;;;;13.54;81.36;98859.94;5018052;28;20061;-58
2021/09/09 00:53:09;;;;;;;9.13;6.75;;;;;;;13.52;81.39;98856.75;5051231;28;20041;-59
2021/09/09 00:55:35;;;;;;;10.07;6.60;;;;;;;13.52;81.16;98852.22;5051046;28;20041;-58
2021/09/09 00:58:01;;;;;;;12.25;7.55;;;;;;;13.46;81.41;98847.97;5052315;28;20106;-58
2021/09/09 01:00:27;;;;;;;10.60;6.95;;;;;;;13.42;81.40;98841.59;5052126;28;20415;-59
2021/09/09 01:02:52;;;;;;;11.57;7.07;;;;;;;13.40;81.40;98857.81;5052511;28;20477;-58
2021/09/09 01:05:18;;;;;;;10.15;7.38;;;;;;;13.36;81.63;98848.00;5052202;28;20047;-61
2021/09/09 01:07:44;;;;;;;10.43;7.40;;;;;;;13.33;81.61;98835.22;5050781;28;20536;-58
2021/09/09 01:10:10;;;;;;;10.77;6.90;;;;;;;13.27;81.74;98842.41;5050747;28;20069;-58
2021/09/09 01:12:36;;;;;;;16.60;7.68;;;;;;;13.19;82.30;98837.59;5066516;28;20142;-58
2021/09/09 01:15:04;;;;;;;11.88;7.63;;;;;;;13.12;82.50;98827.22;5050210;28;20051;-59
2021/09/09 01:17:30;;;;;;;11.10;7.30;;;;;;;13.05;82.98;98828.56;5034142;28;20044;-59
2021/09/09 01:19:56;;;;;;;9.48;6.60;;;;;;;13.02;82.61;98829.09;5033978;28;20045;-59
2021/09/09 01:22:22;;;;;;;10.85;6.72;;;;;;;12.95;82.69;98818.72;5051838;28;20041;-59
2021/09/09 01:24:47;;;;;;;11.68;7.15;;;;;;;12.94;83.40;98823.25;5050413;28;20461;-60
2021/09/09 01:27:18;;;;;;;9.88;7.15;;;;;;;12.89;83.33;98822.44;5051748;28;20040;-60
2021/09/09 01:29:46;;;;;;;11.77;7.30;;;;;;;12.89;83.63;98825.91;5050282;28;20051;-58
2021/09/09 01:32:12;;;;;;;9.40;6.72;;;;;;;12.93;83.27;98821.63;5051699;28;20502;-60
2021/09/09 01:34:38;;;;;;;10.50;7.20;;;;;;;12.99;83.07;98821.66;5050222;28;20040;-59
2021/09/09 01:37:04;;;;;;;10.90;7.13;;;;;;;13.04;82.78;98824.31;5051678;28;20455;-58
2021/09/09 01:39:30;;;;;;;11.23;7.63;;;;;;;13.10;82.54;98820.59;5050092;28;20127;-61
2021/09/09 01:41:58;;;;;;;11.73;7.07;;;;;;;13.15;82.64;98825.91;5066796;28;20477;-58
2021/09/09 01:44:24;;;;;;;12.15;7.25;;;;;;;13.18;82.38;98828.81;5033498;28;20072;-59
2021/09/09 01:46:50;;;;;;;9.48;6.43;;;;;;;13.18;82.13;98812.06;5051640;28;20059;-59
2021/09/09 01:49:18;;;;;;;11.18;7.00;;;;;;;13.25;81.66;98825.09;5051518;28;20037;-59
2021/09/09 01:51:44;;;;;;;11.65;7.07;;;;;;;13.30;82.17;98827.78;5051185;28;20049;-58
2021/09/09 01:54:10;;;;;;;9.73;6.85;;;;;;;13.32;81.48;98817.66;5066612;28;20036;-60
2021/09/09 01:56:36;;;;;;;9.95;7.10;;;;;;;13.35;81.34;98825.09;5051569;28;20106;-57
2021/09/09 01:59:02;;;;;;;10.20;6.80;;;;;;;13.38;81.28;98824.56;5050570;28;20044;-61
2021/09/09 02:01:28;;;;;;;10.80;6.45;;;;;;;13.42;81.45;98819.50;5066845;28;20047;-58
2021/09/09 02:03:54;;;;;;;9.80;7.00;;;;;;;13.43;81.23;98815.78;5051301;28;20041;-58
2021/09/09 02:06:19;;;;;;;9.27;6.68;;;;;;;13.43;81.09;98805.13;5033837;28;20110;-58
2021/09/09 02:08:45;;;;;;;13.32;6.53;;;;;;;13.47;80.94;98808.81;5051662;28;20041;-58
2021/09/09 02:11:12;;;;;;;14.13;7.18;;;;;;;13.52;80.88;98811.47;5033426;28;20047;-58
2021/09/09 02:13:39;;;;;;;12.27;7.03;;;;;;;13.48;80.80;98808.56;5016937;28;20515;-60
2021/09/09 02:16:05;;;;;;;13.95;7.05;;;;;;;13.50;81.09;98813.59;5033385;28;20140;-61
2021/09/09 02:18:33;;;;;;;9.57;6.57;;;;;;;13.53;80.46;98821.06;5000838;28;20358;-59
2021/09/09 02:20:59;;;;;;;9.80;6.97;;;;;;;13.56;80.76;98826.66;5051197;28;20041;-59
2021/09/09 02:23:25;;;;;;;9.88;6.85;;;;;;;13.56;80.53;98810.69;5066663;28;20052;-59
2021/09/09 02:25:51;;;;;;;9.73;6.50;;;;;;;13.58;80.42;98810.41;5049515;28;20144;-60
2021/09/09 02:28:16;;;;;;;11.27;6.90;;;;;;;13.57;80.42;98812.28;5051591;28;20041;-59
2021/09/09 02:30:43;;;;;;;11.38;6.50;;;;;;;13.59;80.33;98822.66;5033209;28;20049;-60
2021/09/09 02:33:10;;;;;;;9.82;6.28;;;;;;;13.60;80.36;98824.25;5050041;28;20057;-58
2021/09/09 02:35:36;;;;;;;9.20;6.72;;;;;;;13.58;80.07;98821.84;5016721;28;20069;-58
2021/09/09 02:38:02;;;;;;;9.75;6.18;;;;;;;13.59;80.21;98818.13;5049789;28;20055;-58
2021/09/09 02:40:28;;;;;;;9.68;6.20;;;;;;;13.59;80.16;98814.69;5049752;28;20043;-60
2021/09/09 02:42:53;;;;;;;11.57;7.13;;;;;;;13.57;80.34;98811.47;5051445;28;20315;-59
2021/09/09 02:45:19;;;;;;;10.48;6.22;;;;;;;13.57;80.22;98814.94;5050935;28;20068;-59
2021/09/09 02:47:45;;;;;;;10.50;6.70;;;;;;;13.55;80.31;98802.94;5051281;28;20163;-60
2021/09/09 02:50:12;;;;;;;15.07;6.55;;;;;;;13.62;80.41;98816.78;5033194;28;20114;-60
2021/09/09 02:52:38;;;;;;;8.85;6.32;;;;;;;13.63;80.00;98808.53;5049459;28;20061;-59
2021/09/09 02:55:04;;;;;;;11.98;7.35;;;;;;;13.62;79.82;98814.94;5051010;28;20033;-60
2021/09/09 02:57:30;;;;;;;9.82;6.28;;;;;;;13.67;79.69;98819.41;5051161;28;20041;-59
2021/09/09 02:59:56;;;;;;;10.02;6.18;;;;;;;13.68;79.54;98830.88;5050930;28;20040;-60
2021/09/09 03:02:22;;;;;;;7.95;6.10;;;;;;;13.72;80.00;98822.06;5066351;28;20053;-59
2021/09/09 03:04:47;;;;;;;10.32;6.35;;;;;;;13.75;79.72;98829.53;5032956;28;20041;-61
2021/09/09 03:07:13;;;;;;;12.10;6.80;;;;;;;13.74;79.27;98825.28;5049584;28;20518;-60
2021/09/09 03:09:39;;;;;;;10.63;7.28;;;;;;;13.74;79.67;98833.25;5050714;28;20453;-59
2021/09/09 03:12:05;;;;;;;10.48;6.03;;;;;;;13.73;79.46;98821.00;5050916;28;20127;-59
2021/09/09 03:14:31;;;;;;;11.85;6.13;;;;;;;13.82;79.29;98834.56;5051118;28;20053;-58
2021/09/09 03:16:56;;;;;;;9.27;6.32;;;;;;;13.79;79.47;98825.22;5049388;28;20418;-59
2021/09/09 03:19:22;;;;;;;11.32;6.45;;;;;;;13.83;79.15;98820.97;5050560;28;20045;-61
2021/09/09 03:21:48;;;;;;;8.70;6.28;;;;;;;13.79;79.10;98825.22;5050638;28;20041;-59
2021/09/09 03:24:15;;;;;;;8.95;6.43;;;;;;;13.80;79.35;98834.84;5050490;28;20577;-60
2021/09/09 03:26:41;;;;;;;8.07;6.28;;;;;;;13.82;79.07;98832.72;5049282;28;20048;-59
2021/09/09 03:29:07;;;;;;;9.50;6.25;;;;;;;13.84;79.18;98835.09;5050588;28;20040;-59
2021/09/09 03:31:32;;;;;;;9.32;6.22;;;;;;;13.85;79.05;98839.34;5065820;28;20048;-59
2021/09/09 03:33:58;;;;;;;8.65;6.03;;;;;;;13.84;79.38;98843.09;5065861;28;20040;-60
2021/09/09 03:36:24;;;;;;;10.20;6.15;;;;;;;13.86;79.53;98839.09;5049863;28;20052;-59
2021/09/09 03:38:50;;;;;;;8.13;6.00;;;;;;;13.88;79.03;98844.13;5069481;28;20045;-60
2021/09/09 03:41:16;;;;;;;7.72;6.00;;;;;;;13.85;78.75;98844.66;5053961;28;20075;-59
2021/09/09 03:43:42;;;;;;;10.60;6.78;;;;;;;13.86;79.60;98836.41;5036034;28;20063;-59
2021/09/09 03:46:07;;;;;;;10.02;6.35;;;;;;;13.89;79.05;98836.94;5054044;28;20066;-59
2021/09/09 03:48:33;;;;;;;11.50;7.00;;;;;;;13.93;79.31;98836.13;5068820;28;20131;-60
2021/09/09 03:50:59;;;;;;;9.02;6.18;;;;;;;13.96;78.97;98835.56;5053595;28;20486;-60
2021/09/09 03:53:25;;;;;;;9.23;6.40;;;;;;;13.98;78.82;98843.31;5052172;28;20044;-60
2021/09/09 03:55:50;;;;;;;11.52;6.45;;;;;;;14.00;78.64;98846.47;5053502;28;20041;-60
2021/09/09 03:58:16;;;;;;;10.95;6.10;;;;;;;14.00;79.02;98833.97;5053746;28;20041;-58
2021/09/09 04:00:42;;;;;;;9.73;6.63;;;;;;;14.04;78.86;98850.22;5069096;28;20531;-60
2021/09/09 04:03:08;;;;;;;8.50;6.20;;;;;;;14.06;78.62;98845.41;5053898;28;20048;-60
2021/09/09 04:05:33;;;;;;;12.70;6.72;;;;;;;14.04;78.75;98855.53;5053787;28;20090;-61
2021/09/09 04:07:59;;;;;;;9.02;6.00;;;;;;;14.07;78.91;98855.78;5052301;28;20041;-59
2021/09/09 04:10:25;;;;;;;10.57;6.18;;;;;;;14.08;78.50;98853.91;5053424;28;20037;-58
2021/09/09 04:12:51;;;;;;;9.15;6.80;;;;;;;14.09;78.58;98855.53;5051738;28;20045;-58
2021/09/09 04:15:16;;;;;;;12.63;6.47;;;;;;;14.08;78.85;98862.69;5068736;28;20048;-59
2021/09/09 04:17:42;;;;;;;9.75;6.70;;;;;;;14.09;79.09;98866.19;5053111;28;20045;-59
2021/09/09 04:20:09;;;;;;;14.27;6.72;;;;;;;14.11;78.91;98868.56;5053092;28;20044;-60
2021/09/09 04:22:35;;;;;;;9.85;5.93;;;;;;;14.15;78.37;98859.75;5051930;28;20497;-59
2021/09/09 04:25:02;;;;;;;10.13;6.80;;;;;;;14.15;78.55;98867.75;5051961;28;20049;-59
2021/09/09 04:27:31;;;;;;;9.68;6.63;;;;;;;14.16;78.53;98872.00;5053049;28;20259;-59
2021/09/09 04:29:57;;;;;;;14.80;7.03;;;;;;;14.17;78.54;98870.13;5053506;28;20044;-60
2021/09/09 04:32:23;;;;;;;8.70;6.28;;;;;;;14.16;78.95;98872.00;5052754;28;20527;-58
2021/09/09 04:34:49;;;;;;;8.85;5.95;;;;;;;14.20;78.51;98866.91;5035375;28;20053;-59
2021/09/09 04:37:25;;;;;;;12.82;6.45;;;;;;;14.05;78.27;98849.13;5052967;28;20049;-59
2021/09/09 04:39:51;;;;;;;9.98;5.82;;;;;;;14.28;78.51;98871.69;5068485;28;20414;-58
2021/09/09 04:42:17;;;;;;;10.00;6.10;;;;;;;14.28;78.23;98869.03;5051844;28;20045;-58
2021/09/09 04:44:42;;;;;;;10.93;6.35;;;;;;;14.28;78.13;98867.16;5068016;28;20048;-59
2021/09/09 04:47:08;;;;;;;14.60;6.35;;;;;;;14.29;78.54;98859.94;5052976;28;20194;-59
2021/09/09 04:49:34;;;;;;;8.98;5.78;;;;;;;14.28;78.26;98863.69;5051502;28;20045;-58
2021/09/09 04:52:00;;;;;;;9.00;6.07;;;;;;;14.30;78.00;98858.88;5034537;28;20473;-59
2021/09/09 04:54:26;;;;;;;10.73;6.97;;;;;;;14.34;78.35;98864.47;5052289;28;20047;-60
2021/09/09 04:56:52;;;;;;;9.30;5.90;;;;;;;14.37;78.36;98869.25;5034674;28;20072;-59
2021/09/09 04:59:18;;;;;;;9.13;6.30;;;;;;;14.40;78.21;98866.03;5034587;28;20040;-58
2021/09/09 05:01:43;;;;;;;9.73;6.47;;;;;;;14.43;78.17;98865.47;5051147;28;20434;-59
2021/09/09 05:04:09;;;;;;;11.07;6.00;;;;;;;14.44;78.07;98869.72;5052567;28;20052;-62
2021/09/09 05:06:35;;;;;;;10.05;6.15;;;;;;;14.49;77.85;98875.84;5050973;28;20132;-58
2021/09/09 05:09:01;;;;;;;9.18;6.43;;;;;;;14.54;77.93;98869.72;5034455;28;20120;-59
2021/09/09 05:11:28;;;;;;;10.70;6.43;;;;;;;14.57;77.56;98868.38;5052295;28;20485;-59
2021/09/09 05:13:57;;;;;;;8.60;5.80;;;;;;;14.59;77.57;98863.53;5017870;28;20061;-59
2021/09/09 05:16:23;;;;;;;10.00;6.45;;;;;;;14.60;77.29;98873.94;5033938;28;20147;-59
2021/09/09 05:18:49;;;;;;;9.48;6.10;;;;;;;14.64;77.36;98858.19;5051968;28;20059;-57
2021/09/09 05:21:14;;;;;;;11.30;6.63;;;;;;;14.64;77.24;98864.31;5033693;28;20577;-59
2021/09/09 05:23:40;;;;;;;9.15;6.32;;;;;;;14.71;77.17;98866.69;5050276;28;20041;-58
2021/09/09 05:26:06;;;;;;;7.88;5.97;;;;;;;14.76;76.72;98877.31;5052015;28;20080;-60
2021/09/09 05:28:32;;;;;;;8.63;5.75;;;;;;;14.72;76.71;98876.28;5050749;28;20374;-59
2021/09/09 05:30:58;;;;;;;10.60;5.65;;;;;;;14.74;76.85;98879.47;5051920;28;20045;-60
2021/09/09 05:33:24;;;;;;;8.98;6.00;;;;;;;14.81;76.94;98869.28;5017229;28;20067;-59
2021/09/09 05:35:50;;;;;;;9.25;5.90;;;;;;;14.85;76.82;98877.50;5051521;28;20035;-59
2021/09/09 05:38:16;;;;;;;11.50;6.28;;;;;;;14.88;76.62;98875.09;5033671;28;20049;-58
2021/09/09 05:40:42;;;;;;;8.30;6.68;;;;;;;14.93;76.72;98868.91;5051495;28;20483;-60
2021/09/09 05:43:08;;;;;;;9.65;6.47;;;;;;;14.98;76.14;98869.69;5049378;28;20124;-61
2021/09/09 05:45:34;;;;;;;10.98;6.07;;;;;;;15.01;76.25;98862.22;5050202;28;20498;-60
2021/09/09 05:47:59;;;;;;;9.88;6.07;;;;;;;14.97;76.42;98875.28;5051400;28;20051;-59
2021/09/09 05:50:25;;;;;;;10.10;6.00;;;;;;;14.98;76.35;98883.03;5033822;28;20068;-61
2021/09/09 05:52:51;;;;;;;23.08;6.15;;;;;;;15.01;76.27;98879.00;5066626;28;20151;-59
2021/09/09 05:55:17;;;;;;;10.77;6.38;;;;;;;15.07;76.24;98877.88;5051841;28;20044;-58
2021/09/09 05:57:42;;;;;;;8.05;5.85;;;;;;;15.14;75.54;98872.22;5051428;28;20041;-59
2021/09/09 06:00:09;;;;;;;7.40;5.93;;;;;;;15.20;75.75;98879.13;5050688;28;20055;-59
2021/09/09 06:02:42;;;;;;;8.60;5.90;;;;;;;15.27;75.91;98881.47;5049975;28;20033;-58
2021/09/09 06:05:08;;;;;;;9.07;6.25;;;;;;;15.29;75.76;98865.97;5066010;28;20060;-59
2021/09/09 06:07:34;;;;;;;9.07;5.57;;;;;;;15.32;75.86;98876.88;5050061;28;20477;-59
2021/09/09 06:10:00;;;;;;;10.65;6.20;;;;;;;15.32;75.69;98866.19;5051642;28;20124;-59
2021/09/09 06:12:26;;;;;;;9.57;6.13;;;;;;;15.28;75.98;98888.41;5049872;28;20048;-58
2021/09/09 06:14:56;;;;;;;9.18;6.05;;;;;;;15.41;75.81;98877.06;5051591;28;20063;-58
2021/09/09 06:17:22;;;;;;;9.45;5.80;;;;;;;15.51;75.45;98868.19;5051219;28;20464;-60
2021/09/09 06:19:48;;;;;;;9.32;5.57;;;;;;;15.53;75.43;98872.16;5049864;28;20153;-59
2021/09/09 06:22:14;;;;;;;10.98;6.45;;;;;;;15.52;75.31;98867.88;5050048;28;20197;-59
2021/09/09 06:24:40;;;;;;;8.95;5.47;;;;;;;15.60;75.43;98880.63;5051933;28;20449;-60
2021/09/09 06:27:06;;;;;;;10.25;6.10;;;;;;;15.64;75.01;98878.19;5050993;28;20048;-61
2021/09/09 06:29:32;;;;;;;8.80;5.47;;;;;;;15.74;74.78;98878.13;5033174;28;20037;-60
2021/09/09 06:31:58;;;;;;;9.27;5.63;;;;;;;15.77;74.89;98880.22;5049579;28;20045;-59
2021/09/09 06:34:24;;;;;;;7.57;5.55;;;;;;;15.82;74.59;98874.00;5051273;28;20403;-59
2021/09/09 06:36:49;;;;;;;9.02;5.22;;;;;;;15.93;74.20;98875.50;5050897;28;20093;-60
2021/09/09 06:39:17;;;;;;;6.88;5.00;;;;;;;16.04;73.73;98879.66;5016795;28;20037;-60
2021/09/09 06:41:45;;;;;;;8.27;5.28;;;;;;;16.11;73.33;98884.63;5043219;28;20056;-59
2021/09/09 06:44:14;;;;;;;8.25;5.80;;;;;;;16.18;73.62;98885.09;5047980;28;20137;-62
2021/09/09 06:46:41;;;;;;;9.13;5.27;;;;;;;16.26;73.25;98881.78;5043472;28;20044;-60
2021/09/09 06:49:07;;;;;;;7.10;5.07;;;;;;;16.25;73.20;98882.88;5045304;28;20048;-59
2021/09/09 06:51:41;;;;;;;8.85;4.97;;;;;;;16.31;73.09;98887.06;5046798;28;20079;-57
2021/09/09 06:54:09;;;;;;;15.38;5.63;;;;;;;16.33;73.42;98884.91;5022965;28;20198;-60
2021/09/09 06:56:35;;;;;;;8.93;5.40;;;;;;;16.36;73.13;98891.56;5045849;28;20044;-59
2021/09/09 06:59:01;;;;;;;10.77;5.20;;;;;;;16.40;73.36;98892.56;5045009;28;20094;-60
2021/09/09 07:01:26;;;;;;;7.15;4.90;;;;;;;16.41;73.11;98880.00;5043931;28;20109;-59
2021/09/09 07:03:52;;;;;;;10.85;5.32;;;;;;;16.53;72.83;98889.19;5045197;28;20044;-60
2021/09/09 07:06:18;;;;;;;8.85;5.13;;;;;;;16.75;72.13;98890.50;5046203;28;20041;-60
2021/09/09 07:08:44;;;;;;;8.85;4.53;;;;;;;16.88;71.52;98889.00;5045073;28;20128;-60
2021/09/09 07:11:09;;;;;;;7.25;5.32;;;;;;;16.99;71.18;98893.09;5046963;28;20060;-60
2021/09/09 07:13:35;;;;;;;7.90;5.60;;;;;;;17.06;71.27;98885.53;5051003;28;20099;-59
2021/09/09 07:16:02;;;;;;;6.95;5.07;;;;;;;17.20;70.77;98894.38;5050126;28;20040;-59
2021/09/09 07:18:29;;;;;;;11.50;5.65;;;;;;;17.37;70.24;98898.41;5047353;28;20041;-60
2021/09/09 07:20:55;;;;;;;10.02;5.60;;;;;;;17.50;69.53;98894.97;5050794;28;20422;-58
2021/09/09 07:23:21;;;;;;;7.90;5.63;;;;;;;17.52;69.59;98897.34;5066327;28;20506;-59
2021/09/09 07:25:47;;;;;;;7.45;5.45;;;;;;;17.59;69.23;98903.09;5064906;28;20552;-61
2021/09/09 07:28:14;;;;;;;9.23;5.63;;;;;;;17.58;69.20;98906.88;5049876;28;20103;-58
2021/09/09 07:30:40;;;;;;;9.23;4.95;;;;;;;17.55;69.29;98907.47;5049700;28;20072;-60
2021/09/09 07:33:06;;;;;;;7.22;4.60;;;;;;;17.61;69.14;98911.66;5047859;28;20102;-58
2021/09/09 07:35:32;;;;;;;5.30;4.65;;;;;;;17.64;68.51;98916.41;5051102;28;20094;-60
2021/09/09 07:37:59;;;;;;;7.18;4.72;;;;;;;17.73;68.82;98913.84;5050413;28;20088;-59
2021/09/09 07:40:25;;;;;;;6.10;4.72;;;;;;;17.77;68.27;98912.19;5050024;28;20057;-58
2021/09/09 07:42:50;;;;;;;7.70;5.15;;;;;;;17.57;68.58;98922.16;5049052;28;20049;-58
2021/09/09 07:45:16;;;;;;;8.70;4.53;;;;;;;17.59;69.10;98916.50;5066054;28;20044;-57
2021/09/09 07:47:42;;;;;;;9.60;4.93;;;;;;;17.56;68.61;98914.41;5048951;28;20045;-58
2021/09/09 07:50:09;;;;;;;7.28;4.72;;;;;;;17.61;68.89;98917.00;5061284;28;20135;-60
2021/09/09 07:52:36;;;;;;;7.93;4.68;;;;;;;17.64;68.48;98922.56;5070682;28;20127;-58
2021/09/09 07:55:03;;;;;;;5.32;4.25;;;;;;;17.64;68.58;98927.94;5069383;28;20414;-57
2021/09/09 07:57:29;;;;;;;8.73;4.32;;;;;;;17.62;68.93;98932.00;5070519;28;20039;-58
2021/09/09 07:59:56;;;;;;;9.38;4.80;;;;;;;17.72;68.46;98921.09;5070681;28;20398;-58
2021/09/09 08:02:22;;;;;;;7.47;4.43;;;;;;;17.89;67.54;98920.56;5066511;28;20037;-55
2021/09/09 08:04:47;;;;;;;9.20;4.00;;;;;;;17.85;67.19;98922.22;5069722;28;20505;-56
2021/09/09 08:07:13;;;;;;;8.45;3.90;;;;;;;17.96;67.12;98926.31;5053160;28;20059;-57
2021/09/09 08:09:39;;;;;;;5.88;3.63;;;;;;;18.03;66.93;98928.59;5068354;28;20147;-56
2021/09/09 08:12:06;;;;;;;7.10;4.05;;;;;;;18.06;66.75;98928.81;5071506;28;20044;-57
2021/09/09 08:14:33;;;;;;;7.80;4.32;;;;;;;18.08;66.61;98917.78;5069933;28;20127;-57
2021/09/09 08:16:59;;;;;;;4.88;3.65;;;;;;;18.10;66.84;98926.34;5070421;28;20464;-56
2021/09/09 08:19:25;;;;;;;7.57;3.60;;;;;;;18.07;66.61;98933.09;5068888;28;20045;-58
2021/09/09 08:21:52;;;;;;;7.25;3.75;;;;;;;18.06;66.86;98926.13;5053057;28;20429;-54
2021/09/09 08:24:18;;;;;;;5.13;3.72;;;;;;;18.16;66.55;98927.81;5051550;28;20049;-58
2021/09/09 08:26:43;;;;;;;6.15;3.78;;;;;;;18.35;65.75;98931.19;5070290;28;20044;-58
2021/09/09 08:29:09;;;;;;;8.07;3.85;;;;;;;18.59;65.09;98932.84;5071353;28;20093;-59
2021/09/09 08:31:35;;;;;;;7.07;3.58;;;;;;;18.74;64.86;98932.56;5070944;28;20045;-58
2021/09/09 08:34:01;;;;;;;6.47;3.60;;;;;;;18.60;64.93;98923.69;5071154;28;20040;-59
2021/09/09 08:36:27;;;;;;;5.72;4.57;;;;;;;18.57;65.61;98927.78;5069167;28;20512;-60
2021/09/09 08:38:53;;;;;;;5.93;3.92;;;;;;;18.51;65.70;98925.50;5070536;28;20045;-61
2021/09/09 08:41:20;;;;;;;8.43;3.63;;;;;;;18.54;65.08;98935.66;5072042;28;20051;-60
2021/09/09 08:43:46;;;;;;;7.57;3.65;;;;;;;18.62;64.97;98932.25;5071070;28;20067;-59
2021/09/09 08:46:15;;;;;;;6.65;3.80;;;;;;;18.60;64.90;98934.44;5068640;28;20068;-60
2021/09/09 08:48:44;;;;;;;4.43;3.17;;;;;;;18.50;65.11;98940.81;5070816;28;20131;-60
2021/09/09 08:51:09;;;;;;;7.95;3.90;;;;;;;18.46;64.81;98937.13;5069250;28;20072;-60
2021/09/09 08:53:36;;;;;;;6.15;3.78;;;;;;;18.53;64.97;98931.34;5068654;28;20083;-59
2021/09/09 08:56:01;;;;;;;5.70;3.28;;;;;;;18.54;64.68;98936.44;5052868;28;20032;-61
2021/09/09 08:58:27;;;;;;;5.63;3.65;;;;;;;18.71;64.87;98937.72;5069474;28;20090;-59
2021/09/09 09:01:09;;;;;;;8.00;4.03;;;;;;;18.55;64.98;98946.06;5070577;28;20059;-61
2021/09/09 09:03:47;;;;;;;4.65;3.47;;;;;;;18.56;64.86;98936.13;5068489;28;20045;-59
2021/09/09 09:06:22;;;;;;;9.20;3.92;;;;;;;18.65;64.94;98952.31;5067850;28;20123;-59
2021/09/09 09:09:12;;;;;;;6.05;4.05;;;;;;;18.63;64.59;98957.22;5068971;28;20059;-59
2021/09/09 09:11:44;;;;;;;4.70;3.80;;;;;;;18.56;64.87;98957.59;5070995;28;20487;-59
2021/09/09 09:14:12;;;;;;;5.07;3.60;;;;;;;18.60;65.09;98958.59;5069942;28;20094;-60
2021/09/09 09:16:50;;;;;;;7.03;3.83;;;;;;;18.63;65.28;98947.25;5069076;28;20497;-60
2021/09/09 09:19:20;;;;;;;4.38;3.42;;;;;;;18.56;64.87;98952.22;5068770;28;20548;-59
2021/09/09 09:21:50;;;;;;;6.80;4.35;;;;;;;18.52;65.23;98957.41;5049497;28;20502;-59
2021/09/09 09:24:19;;;;;;;5.45;3.85;;;;;;;18.50;64.99;98953.44;5048646;28;20394;-59
2021/09/09 09:27:06;;;;;;;5.00;3.47;;;;;;;18.51;64.86;98955.81;5031229;28;20218;-62
2021/09/09 09:29:32;;;;;;;3.90;3.08;;;;;;;18.43;64.57;98958.41;5048997;28;20056;-59
2021/09/09 09:32:17;;;;;;;7.30;3.22;;;;;;;18.33;64.72;98946.00;5049475;28;20045;-59
2021/09/09 09:34:45;;;;;;;4.28;3.28;;;;;;;18.33;65.12;98952.16;5049219;28;20051;-62
2021/09/09 09:37:11;;;;;;;5.32;3.50;;;;;;;18.31;65.32;98957.03;5047237;28;20506;-59
2021/09/09 09:39:37;;;;;;;7.80;3.42;;;;;;;18.44;65.02;98958.09;5047501;28;20783;-59
2021/09/09 09:42:05;;;;;;;6.07;3.83;;;;;;;18.59;65.14;98952.44;5049534;28;20060;-58
2021/09/09 09:44:42;;;;;;;4.43;3.15;;;;;;;18.65;64.55;98945.06;5048692;28;20041;-59
2021/09/09 09:47:19;;;;;;;4.25;3.17;;;;;;;18.72;63.65;98953.50;5031393;28;20498;-60
2021/09/09 09:49:55;;;;;;;8.25;3.35;;;;;;;18.80;63.65;98960.88;5048997;28;20066;-60
2021/09/09 09:52:26;;;;;;;5.10;3.50;;;;;;;18.78;63.27;98949.63;5049038;28;20142;-59
2021/09/09 09:54:55;;;;;;;6.22;3.70;;;;;;;18.85;64.02;98954.59;5049990;28;20483;-59
2021/09/09 09:57:25;;;;;;;6.40;3.60;;;;;;;18.84;63.29;98966.44;5048712;28;20048;-59
2021/09/09 09:59:51;;;;;;;4.90;3.17;;;;;;;18.89;63.55;98947.53;5047237;28;20041;-61
2021/09/09 10:02:17;;;;;;;6.60;3.88;;;;;;;18.96;63.55;98953.25;5049519;28;20044;-59
2021/09/09 10:04:45;;;;;;;4.22;3.60;;;;;;;19.07;62.86;98953.84;5047173;28;20079;-61
2021/09/09 10:07:12;;;;;;;9.02;3.65;;;;;;;19.13;63.17;98951.84;5063223;28;20052;-60
2021/09/09 10:09:39;;;;;;;9.45;3.45;;;;;;;19.22;62.79;98950.00;5069323;28;20048;-59
2021/09/09 10:12:12;;;;;;;5.22;3.17;;;;;;;19.40;62.33;98962.44;5067198;28;20047;-60
2021/09/09 10:14:47;;;;;;;3.88;3.30;;;;;;;19.24;61.98;98950.50;5059255;28;20581;-60
2021/09/09 10:17:17;;;;;;;5.55;3.28;;;;;;;19.22;62.71;98958.06;5063331;28;20045;-60
2021/09/09 10:19:43;;;;;;;7.20;3.47;;;;;;;19.25;62.25;98960.13;5068812;28;20131;-58
2021/09/09 10:22:14;;;;;;;6.60;3.33;;;;;;;19.23;62.17;98959.63;5066375;28;20127;-61
2021/09/09 10:24:46;;;;;;;5.40;3.70;;;;;;;19.34;62.26;98970.94;5067695;28;20048;-59
2021/09/09 10:27:41;;;;;;;5.85;3.10;;;;;;;19.49;62.26;98966.00;5066964;28;20536;-60
2021/09/09 10:30:16;;;;;;;9.93;3.53;;;;;;;19.54;61.80;98959.72;5067840;28;20040;-60
2021/09/09 10:32:56;;;;;;;7.93;3.40;;;;;;;19.50;62.15;98961.41;5068272;28;20520;-60
2021/09/09 10:35:29;;;;;;;4.63;2.88;;;;;;;19.52;61.87;98972.66;5069903;28;20479;-59
2021/09/09 10:38:18;;;;;;;6.50;3.38;;;;;;;19.48;61.54;98969.78;5069957;28;20513;-60
2021/09/09 10:40:45;;;;;;;5.53;3.13;;;;;;;19.49;61.28;98970.56;5068016;28;20047;-60
2021/09/09 10:43:14;;;;;;;4.65;3.03;;;;;;;19.44;61.41;98970.69;5068007;28;20040;-60
2021/09/09 10:45:42;;;;;;;6.45;3.10;;;;;;;19.20;62.25;98974.47;5069827;28;20135;-60
2021/09/09 10:48:14;;;;;;;5.45;3.50;;;;;;;19.28;62.14;98972.97;5072097;28;20616;-60
2021/09/09 10:51:07;;;;;;;6.85;3.42;;;;;;;19.27;62.31;98966.81;5073598;28;20123;-60
2021/09/09 10:53:33;;;;;;;6.85;3.90;;;;;;;19.39;62.67;98966.25;5072325;28;20504;-59
2021/09/09 10:56:10;;;;;;;4.88;3.50;;;;;;;19.32;62.68;98970.44;5070417;28;20529;-61
2021/09/09 10:58:38;;;;;;;4.13;3.00;;;;;;;19.22;62.86;98974.19;5070636;28;20483;-60
2021/09/09 11:01:07;;;;;;;7.55;3.95;;;;;;;19.22;63.22;98960.75;5068531;28;20040;-60
2021/09/09 11:03:40;;;;;;;5.68;3.22;;;;;;;19.16;63.46;98978.88;5070459;28;20482;-59
2021/09/09 11:06:08;;;;;;;5.05;3.60;;;;;;;19.03;63.35;98977.00;5070821;28;20394;-58
2021/09/09 11:08:34;;;;;;;5.15;3.22;;;;;;;18.96;63.73;98977.44;5069307;28;20037;-58
2021/09/09 11:11:05;;;;;;;4.97;3.40;;;;;;;18.91;63.81;98980.22;5038122;28;20561;-59
2021/09/09 11:13:33;;;;;;;4.97;3.10;;;;;;;18.79;64.42;98988.00;5037354;28;20055;-60
2021/09/09 11:15:59;;;;;;;4.60;3.40;;;;;;;18.61;64.85;98982.44;5072395;28;20134;-59
2021/09/09 11:18:32;;;;;;;5.88;3.30;;;;;;;18.72;64.67;98983.03;5071564;28;20056;-60
2021/09/09 11:21:03;;;;;;;7.82;3.17;;;;;;;18.90;64.56;98986.69;5071322;28;20040;-59
2021/09/09 11:23:28;;;;;;;4.95;3.15;;;;;;;18.98;64.08;98982.53;5071237;28;20052;-58
2021/09/09 11:25:54;;;;;;;7.55;3.30;;;;;;;19.16;63.43;98986.16;5073421;28;20033;-61
2021/09/09 11:28:20;;;;;;;5.22;3.40;;;;;;;19.22;63.47;98980.34;5071057;28;20040;-59
2021/09/09 11:31:09;;;;;;;7.28;3.60;;;;;;;19.33;63.45;98980.91;5052426;28;20040;-63
2021/09/09 11:33:54;;;;;;;4.72;3.50;;;;;;;19.43;63.42;98977.19;5069818;28;20127;-60